Tanacross, Alaska
Current Conditions -  °F | °C
As of 10:53 AM on Saturday 20 Dec 2014 (Local Time) from PAOR Reporting Station
Light Snow Light Snow  
Wind Chill: -17°   Ceiling: 1600
Heat Index: -17°   Visibility: 9mi
Dew Point: -22°   Wind: 0mph
Humidity: 78%   Direction: NA
Pressure: 29.21"   Gusts: NA
Location:  63.38°N, 143.36°W
Report Text: PAOR 201953Z 00000KT 9SM -SN BKN016 BKN034 M27/M30 A2921 RMK AO2 SNB45 SLP970 PCPN VRY LGT T12721300
Loading
Personal Weather Stations






























Interactive Weather Map New forecast layout! Learn more

10-Day Weather Forecast

Advertisements
Track Severe Weather on mobile